Terminal Aerodrome Forecast
Issued by NWS

Home | Current Version | Previous Version | Graphics & Text | Print | Product List | Glossary On
Versions: 1 2 3 4 5 6 7 8 9 10 11 12 13 14 15 16 17 18
248
FTUS43 KMPX 110520
TAFRNH
TAF
KRNH 110520Z 1106/1206 16004KT P6SM OVC060
     FM110730 17004KT 2SM -SN SCT020 OVC040
     FM111000 17003KT P6SM VCSH OVC020
     FM111400 27005KT P6SM SCT020 OVC035
     FM111700 32012G20KT P6SM OVC015
     FM112100 33017G28KT P6SM SCT020 BKN040
     FM120300 33011G19KT P6SM SCT040=

USA.gov is the U.S. government's official web portal to all federal, state and local government web resources and services.